Time;durP1;ratioP1;P1;durP2;ratioP2;P2;SDS_P1;SDS_P2;PMS_P1;PMS_P2;Temp;Humidity;BMP_temperature;BMP_pressure;BME280_temperature;BME280_humidity;BME280_pressure;Samples;Min_cycle;Max_cycle;Signal;HPM_P1;HPM_P2
2023/06/09 00:00:47;;;;;;;6.28;2.35;;;;;;;;;;6122882;23;20360;-83
2023/06/09 00:03:16;;;;;;;6.30;2.33;;;;;;;;;;6120947;23;20025;-83
2023/06/09 00:05:42;;;;;;;11.20;3.25;;;;;;;;;;6120648;23;20057;-83
2023/06/09 00:08:08;;;;;;;4.80;2.35;;;;;;;;;;6122744;23;20021;-83
2023/06/09 00:10:34;;;;;;;5.18;2.78;;;;;;;;;;6122360;23;20018;-85
2023/06/09 00:13:00;;;;;;;6.80;2.95;;;;;;;;;;6123015;23;20021;-86
2023/06/09 00:15:26;;;;;;;4.47;2.83;;;;;;;;;;6120884;23;20054;-81
2023/06/09 00:17:53;;;;;;;3.50;2.50;;;;;;;;;;6122944;23;20017;-82
2023/06/09 00:20:20;;;;;;;6.65;2.88;;;;;;;;;;6121540;23;20021;-86
2023/06/09 00:22:48;;;;;;;7.30;2.45;;;;;;;;;;6122026;23;20324;-84
2023/06/09 00:25:15;;;;;;;6.57;2.60;;;;;;;;;;6122980;23;20014;-83
2023/06/09 00:27:43;;;;;;;5.75;2.65;;;;;;;;;;6118612;23;20415;-85
2023/06/09 00:30:10;;;;;;;5.88;2.47;;;;;;;;;;6121149;23;20423;-84
2023/06/09 00:32:36;;;;;;;9.40;2.78;;;;;;;;;;6120843;23;20868;-80
2023/06/09 00:35:03;;;;;;;8.48;2.33;;;;;;;;;;6122254;23;20040;-84
2023/06/09 00:37:30;;;;;;;8.48;3.45;;;;;;;;;;6119394;23;20399;-83
2023/06/09 00:39:57;;;;;;;7.43;2.67;;;;;;;;;;6096965;23;20514;-82
2023/06/09 00:42:23;;;;;;;6.50;3.13;;;;;;;;;;6095892;23;20399;-84
2023/06/09 00:44:49;;;;;;;7.38;3.03;;;;;;;;;;6120013;23;20448;-85
2023/06/09 00:47:16;;;;;;;11.63;3.00;;;;;;;;;;6120496;23;20104;-81
2023/06/09 00:49:43;;;;;;;6.50;2.95;;;;;;;;;;6121449;23;20013;-82
2023/06/09 00:52:10;;;;;;;7.70;2.90;;;;;;;;;;6120412;23;20050;-85
2023/06/09 00:54:36;;;;;;;6.03;3.28;;;;;;;;;;6121611;23;20053;-83
2023/06/09 00:57:03;;;;;;;6.70;3.20;;;;;;;;;;6122733;23;20070;-82
2023/06/09 00:59:29;;;;;;;7.80;3.17;;;;;;;;;;6119682;23;20094;-83
2023/06/09 01:01:56;;;;;;;4.85;3.03;;;;;;;;;;6119836;23;20063;-85
2023/06/09 01:04:22;;;;;;;5.22;2.95;;;;;;;;;;6120805;23;20025;-85
2023/06/09 01:06:48;;;;;;;7.60;3.10;;;;;;;;;;6121609;23;20025;-84
2023/06/09 01:09:49;;;;;;;5.65;2.70;;;;;;;;;;6121923;23;20017;-86
2023/06/09 01:12:20;;;;;;;7.68;3.35;;;;;;;;;;6009496;23;20023;-83
2023/06/09 01:14:55;;;;;;;7.07;3.00;;;;;;;;;;6032498;23;20338;-83
2023/06/09 01:17:23;;;;;;;9.63;3.05;;;;;;;;;;6006948;23;20015;-84
2023/06/09 01:19:51;;;;;;;6.93;3.30;;;;;;;;;;6008648;23;20341;-89
2023/06/09 01:22:18;;;;;;;5.35;2.75;;;;;;;;;;6007803;23;20027;-83
2023/06/09 01:24:48;;;;;;;7.88;2.88;;;;;;;;;;6009363;23;20442;-86
2023/06/09 01:27:17;;;;;;;6.43;2.85;;;;;;;;;;6032579;23;20138;-83
2023/06/09 01:29:44;;;;;;;7.97;2.85;;;;;;;;;;6008132;23;20090;-85
2023/06/09 01:32:10;;;;;;;6.82;3.63;;;;;;;;;;6031358;23;20381;-86
2023/06/09 01:34:37;;;;;;;8.70;3.17;;;;;;;;;;6008082;23;20045;-84
2023/06/09 01:37:03;;;;;;;7.95;3.00;;;;;;;;;;6009009;23;20065;-84
2023/06/09 01:39:29;;;;;;;8.82;3.05;;;;;;;;;;6007970;23;20111;-87
2023/06/09 01:41:55;;;;;;;9.68;3.25;;;;;;;;;;5985652;23;20050;-85
2023/06/09 01:44:21;;;;;;;4.43;3.13;;;;;;;;;;6007186;23;20027;-85
2023/06/09 01:46:47;;;;;;;6.65;3.30;;;;;;;;;;6089252;23;20348;-85
2023/06/09 01:49:28;;;;;;;7.07;2.90;;;;;;;;;;6120829;23;20022;-84
2023/06/09 01:52:00;;;;;;;8.32;3.60;;;;;;;;;;6119937;23;20045;-87
2023/06/09 01:54:36;;;;;;;9.90;4.00;;;;;;;;;;6121780;23;20013;-86
2023/06/09 01:57:10;;;;;;;10.85;3.60;;;;;;;;;;6121222;23;20018;-85
2023/06/09 01:59:54;;;;;;;10.13;3.85;;;;;;;;;;6119184;23;20033;-84
2023/06/09 02:02:20;;;;;;;7.20;3.80;;;;;;;;;;6123504;23;20025;-84
2023/06/09 02:04:48;;;;;;;12.60;4.53;;;;;;;;;;6123139;23;20025;-83
2023/06/09 02:07:16;;;;;;;7.13;3.88;;;;;;;;;;6123467;23;20013;-85
2023/06/09 02:09:44;;;;;;;8.40;3.45;;;;;;;;;;6123729;23;20021;-84
2023/06/09 02:12:10;;;;;;;7.55;3.45;;;;;;;;;;6124014;23;20329;-84
2023/06/09 02:14:37;;;;;;;8.65;4.50;;;;;;;;;;6122542;23;20340;-86
2023/06/09 02:17:03;;;;;;;10.10;4.13;;;;;;;;;;6124399;23;20014;-84
2023/06/09 02:19:30;;;;;;;11.23;4.18;;;;;;;;;;6123443;23;20017;-85
2023/06/09 02:21:57;;;;;;;7.97;4.55;;;;;;;;;;6124094;23;20026;-84
2023/06/09 02:24:28;;;;;;;9.38;4.60;;;;;;;;;;6124007;23;20044;-87
2023/06/09 02:26:54;;;;;;;9.77;4.20;;;;;;;;;;6124983;23;20021;-85
2023/06/09 02:29:20;;;;;;;10.05;4.55;;;;;;;;;;6125125;23;20030;-85
2023/06/09 02:31:46;;;;;;;8.50;4.05;;;;;;;;;;6127991;23;20079;-84
2023/06/09 02:34:12;;;;;;;10.35;4.70;;;;;;;;;;6127546;23;20329;-85
2023/06/09 02:36:42;;;;;;;10.80;4.60;;;;;;;;;;6129337;23;20076;-84
2023/06/09 02:39:08;;;;;;;9.13;5.13;;;;;;;;;;6127126;23;20009;-86
2023/06/09 02:41:34;;;;;;;9.90;3.65;;;;;;;;;;6125256;23;20017;-85
2023/06/09 02:44:02;;;;;;;8.23;3.72;;;;;;;;;;6126117;23;20018;-82
2023/06/09 02:46:29;;;;;;;8.95;4.15;;;;;;;;;;6125585;23;20022;-86
2023/06/09 02:48:56;;;;;;;8.65;3.97;;;;;;;;;;6131721;23;20361;-87
2023/06/09 02:51:22;;;;;;;11.40;4.15;;;;;;;;;;6132870;23;20014;-85
2023/06/09 02:53:48;;;;;;;7.00;3.45;;;;;;;;;;6134099;23;20017;-85
2023/06/09 02:56:14;;;;;;;11.75;4.00;;;;;;;;;;6140648;23;20045;-86
2023/06/09 02:58:40;;;;;;;5.80;3.90;;;;;;;;;;6138733;23;20088;-84
2023/06/09 03:01:07;;;;;;;12.00;4.03;;;;;;;;;;6132707;23;20013;-85
2023/06/09 03:03:34;;;;;;;8.45;3.80;;;;;;;;;;6123760;23;20020;-86
2023/06/09 03:06:00;;;;;;;7.78;4.68;;;;;;;;;;6123580;23;20149;-86
2023/06/09 03:08:26;;;;;;;7.65;3.65;;;;;;;;;;6124399;23;20133;-85
2023/06/09 03:10:53;;;;;;;10.07;4.20;;;;;;;;;;6128038;23;20021;-82
2023/06/09 03:13:19;;;;;;;9.98;3.97;;;;;;;;;;6123422;23;20343;-83
2023/06/09 03:15:45;;;;;;;9.18;4.03;;;;;;;;;;6126721;23;20029;-85
2023/06/09 03:18:13;;;;;;;8.15;3.83;;;;;;;;;;6125340;23;20439;-83
2023/06/09 03:20:39;;;;;;;6.63;3.63;;;;;;;;;;6121590;23;20018;-83
2023/06/09 03:23:06;;;;;;;8.90;4.85;;;;;;;;;;6096596;23;20029;-82
2023/06/09 03:25:33;;;;;;;8.88;4.28;;;;;;;;;;6121143;23;20105;-85
2023/06/09 03:28:00;;;;;;;7.70;3.92;;;;;;;;;;6121660;23;20090;-84
2023/06/09 03:30:26;;;;;;;6.68;3.60;;;;;;;;;;6095928;23;20029;-84
2023/06/09 03:32:52;;;;;;;9.98;4.80;;;;;;;;;;6096819;23;20018;-86
2023/06/09 03:35:18;;;;;;;9.15;3.97;;;;;;;;;;6122023;23;20053;-83
2023/06/09 03:37:44;;;;;;;6.63;3.28;;;;;;;;;;6121982;23;20010;-82
2023/06/09 03:40:10;;;;;;;5.20;3.10;;;;;;;;;;6121804;23;20026;-82
2023/06/09 03:42:36;;;;;;;9.85;4.60;;;;;;;;;;6121573;23;20497;-85
2023/06/09 03:45:03;;;;;;;8.57;3.90;;;;;;;;;;6097502;23;20081;-84
2023/06/09 03:47:29;;;;;;;10.25;4.45;;;;;;;;;;6122217;23;20014;-84
2023/06/09 03:49:55;;;;;;;10.52;4.28;;;;;;;;;;6121854;23;20029;-84
2023/06/09 03:52:22;;;;;;;7.47;3.83;;;;;;;;;;6096237;23;20022;-87
2023/06/09 03:54:48;;;;;;;8.93;4.30;;;;;;;;;;6122565;23;20092;-85
2023/06/09 03:57:14;;;;;;;10.77;4.63;;;;;;;;;;6121207;23;20032;-85
2023/06/09 03:59:40;;;;;;;9.57;4.30;;;;;;;;;;6120589;23;20086;-84
2023/06/09 04:02:06;;;;;;;5.78;3.42;;;;;;;;;;6122003;23;20451;-83
2023/06/09 04:04:32;;;;;;;6.20;3.40;;;;;;;;;;6121335;23;20014;-84
2023/06/09 04:06:59;;;;;;;7.68;4.20;;;;;;;;;;6123114;23;20073;-89
2023/06/09 04:09:25;;;;;;;11.50;4.18;;;;;;;;;;6095951;23;20025;-83
2023/06/09 04:11:51;;;;;;;10.57;3.65;;;;;;;;;;6120624;23;20024;-85
2023/06/09 04:14:17;;;;;;;8.48;3.95;;;;;;;;;;6119277;23;20017;-85
2023/06/09 04:16:43;;;;;;;8.30;3.90;;;;;;;;;;6120449;23;20021;-85
2023/06/09 04:19:09;;;;;;;5.47;3.30;;;;;;;;;;6120580;23;20022;-87
2023/06/09 04:21:36;;;;;;;7.07;3.30;;;;;;;;;;6095414;23;20060;-86
2023/06/09 04:24:03;;;;;;;11.98;4.18;;;;;;;;;;6123905;23;20050;-85
2023/06/09 04:26:32;;;;;;;7.90;4.03;;;;;;;;;;6095269;23;20441;-88
2023/06/09 04:28:59;;;;;;;7.60;3.70;;;;;;;;;;6121351;23;20400;-85
2023/06/09 04:31:33;;;;;;;7.53;3.60;;;;;;;;;;6120714;23;20336;-87
2023/06/09 04:34:05;;;;;;;10.90;3.97;;;;;;;;;;6121431;23;20014;-85
2023/06/09 04:36:32;;;;;;;9.02;3.80;;;;;;;;;;6120458;23;20080;-88
2023/06/09 04:38:59;;;;;;;8.95;3.42;;;;;;;;;;6121119;23;20025;-86
2023/06/09 04:41:26;;;;;;;10.25;3.90;;;;;;;;;;6120939;23;20183;-88
2023/06/09 04:43:53;;;;;;;10.93;3.95;;;;;;;;;;6120785;23;20033;-86
2023/06/09 04:46:24;;;;;;;6.15;4.00;;;;;;;;;;6119847;23;20022;-85
2023/06/09 04:48:51;;;;;;;8.13;3.90;;;;;;;;;;6122507;23;20017;-92
2023/06/09 04:51:19;;;;;;;9.25;3.78;;;;;;;;;;6121874;23;20448;-84
2023/06/09 04:53:47;;;;;;;8.45;4.40;;;;;;;;;;6095321;23;20136;-83
2023/06/09 04:56:16;;;;;;;10.85;3.53;;;;;;;;;;6119332;23;20022;-82
2023/06/09 04:58:43;;;;;;;7.38;3.53;;;;;;;;;;6122309;23;20037;-84
2023/06/09 05:01:10;;;;;;;7.70;3.70;;;;;;;;;;6119778;23;20018;-81
2023/06/09 05:03:36;;;;;;;7.28;3.45;;;;;;;;;;6120695;23;20014;-85
2023/06/09 05:06:02;;;;;;;7.95;3.63;;;;;;;;;;6094115;23;20026;-85
2023/06/09 05:08:28;;;;;;;7.60;3.65;;;;;;;;;;6118965;23;20029;-86
2023/06/09 05:10:54;;;;;;;10.95;4.10;;;;;;;;;;6119462;23;20022;-81
2023/06/09 05:13:20;;;;;;;8.32;4.05;;;;;;;;;;6120448;23;20104;-87
2023/06/09 05:15:47;;;;;;;10.07;3.85;;;;;;;;;;6095539;23;20018;-85
2023/06/09 05:18:17;;;;;;;9.25;4.07;;;;;;;;;;6122562;23;20029;-88
2023/06/09 05:20:43;;;;;;;;;;;;;;;;;;6120447;23;20029;-83
2023/06/09 05:23:09;;;;;;;8.20;3.83;;;;;;;;;;6119868;23;20147;-85
2023/06/09 05:25:35;;;;;;;6.53;3.30;;;;;;;;;;6119799;23;20041;-84
2023/06/09 05:28:01;;;;;;;6.55;3.38;;;;;;;;;;6121311;23;20090;-85
2023/06/09 05:30:27;;;;;;;9.18;3.85;;;;;;;;;;6120577;23;20054;-84
2023/06/09 05:32:53;;;;;;;7.57;3.75;;;;;;;;;;6123308;23;20081;-85
2023/06/09 05:35:19;;;;;;;4.78;3.40;;;;;;;;;;6120238;23;20355;-83
2023/06/09 05:37:52;;;;;;;7.97;3.58;;;;;;;;;;6120110;23;20010;-84
2023/06/09 05:40:18;;;;;;;8.27;3.80;;;;;;;;;;6120170;23;20018;-82
2023/06/09 05:42:44;;;;;;;9.85;3.92;;;;;;;;;;6120677;23;20014;-83
2023/06/09 05:45:10;;;;;;;11.07;3.88;;;;;;;;;;6122240;23;20093;-84
2023/06/09 05:47:36;;;;;;;9.00;3.78;;;;;;;;;;6095432;23;20021;-83
2023/06/09 05:50:02;;;;;;;8.00;4.00;;;;;;;;;;6120505;23;20442;-85
2023/06/09 05:52:28;;;;;;;10.65;4.00;;;;;;;;;;6120969;23;20049;-85
2023/06/09 05:54:55;;;;;;;11.70;3.88;;;;;;;;;;6120231;23;20014;-84
2023/06/09 05:57:21;;;;;;;11.13;3.85;;;;;;;;;;6120054;23;20022;-83
2023/06/09 05:59:47;;;;;;;7.40;4.03;;;;;;;;;;6121777;23;20073;-84
2023/06/09 06:02:13;;;;;;;9.85;3.97;;;;;;;;;;6122657;23;20011;-83
2023/06/09 06:04:39;;;;;;;9.70;3.92;;;;;;;;;;6119969;23;20092;-81
2023/06/09 06:07:06;;;;;;;8.07;3.63;;;;;;;;;;6120329;23;20021;-83
2023/06/09 06:09:32;;;;;;;7.13;4.20;;;;;;;;;;6117671;23;20024;-82
2023/06/09 06:11:58;;;;;;;7.18;3.40;;;;;;;;;;6120603;23;20028;-81
2023/06/09 06:14:24;;;;;;;9.27;3.72;;;;;;;;;;6118576;23;20049;-83
2023/06/09 06:16:50;;;;;;;6.20;3.60;;;;;;;;;;6119461;23;20018;-82
2023/06/09 06:19:16;;;;;;;9.75;3.83;;;;;;;;;;6121037;23;20395;-83
2023/06/09 06:21:42;;;;;;;8.82;3.65;;;;;;;;;;6120719;23;20064;-83
2023/06/09 06:24:09;;;;;;;6.68;3.30;;;;;;;;;;6119697;23;20068;-85
2023/06/09 06:26:35;;;;;;;6.50;3.60;;;;;;;;;;6119541;23;20044;-83
2023/06/09 06:29:01;;;;;;;7.80;3.75;;;;;;;;;;6120349;23;20018;-84
2023/06/09 06:31:29;;;;;;;8.52;3.50;;;;;;;;;;6119957;23;20024;-84
2023/06/09 06:33:55;;;;;;;5.97;3.60;;;;;;;;;;6121128;23;20042;-84
2023/06/09 06:36:21;;;;;;;8.48;3.70;;;;;;;;;;6120207;23;20021;-89
2023/06/09 06:38:48;;;;;;;6.70;3.20;;;;;;;;;;6120003;23;20025;-83
2023/06/09 06:41:14;;;;;;;6.75;3.30;;;;;;;;;;6120724;23;20360;-90
2023/06/09 06:43:41;;;;;;;9.85;3.30;;;;;;;;;;6119903;23;20022;-85
2023/06/09 06:46:07;;;;;;;9.68;3.10;;;;;;;;;;6121069;23;20025;-86
2023/06/09 06:48:33;;;;;;;6.85;3.13;;;;;;;;;;6122659;23;20029;-81
2023/06/09 06:51:00;;;;;;;7.53;3.30;;;;;;;;;;6121589;23;20025;-86
2023/06/09 06:53:26;;;;;;;13.82;3.85;;;;;;;;;;6123674;23;20014;-85
2023/06/09 06:55:52;;;;;;;4.80;2.50;;;;;;;;;;6121921;23;20022;-83
2023/06/09 06:58:18;;;;;;;9.93;3.88;;;;;;;;;;6122223;23;20336;-84
2023/06/09 07:00:45;;;;;;;7.68;3.08;;;;;;;;;;6122063;23;20443;-85
2023/06/09 07:03:12;;;;;;;7.75;3.95;;;;;;;;;;6124745;23;20010;-85
2023/06/09 07:05:38;;;;;;;7.30;3.28;;;;;;;;;;6121030;23;20041;-86
2023/06/09 07:08:04;;;;;;;8.00;3.33;;;;;;;;;;6123030;23;20018;-86
2023/06/09 07:10:31;;;;;;;7.15;3.22;;;;;;;;;;6123588;23;20024;-83
2023/06/09 07:12:57;;;;;;;6.28;3.15;;;;;;;;;;6122980;23;20014;-87
2023/06/09 07:15:23;;;;;;;9.35;3.75;;;;;;;;;;6121554;23;20013;-80
2023/06/09 07:17:49;;;;;;;7.32;4.13;;;;;;;;;;6122825;23;20344;-81
2023/06/09 07:20:15;;;;;;;8.13;4.00;;;;;;;;;;6123467;23;20018;-88
2023/06/09 07:22:41;;;;;;;8.23;3.17;;;;;;;;;;6120527;23;20077;-85
2023/06/09 07:25:08;;;;;;;7.32;3.45;;;;;;;;;;6122069;23;20033;-81
2023/06/09 07:27:34;;;;;;;7.30;3.72;;;;;;;;;;6123480;23;20336;-86
2023/06/09 07:30:01;;;;;;;9.57;4.03;;;;;;;;;;6122815;23;20020;-89
2023/06/09 07:32:27;;;;;;;9.07;3.70;;;;;;;;;;6122025;23;20033;-86
2023/06/09 07:34:53;;;;;;;7.43;3.58;;;;;;;;;;6122274;23;20045;-88
2023/06/09 07:37:20;;;;;;;8.13;3.40;;;;;;;;;;6125365;23;20059;-86
2023/06/09 07:39:46;;;;;;;8.25;3.88;;;;;;;;;;6126536;23;20348;-90
2023/06/09 07:42:12;;;;;;;8.18;4.15;;;;;;;;;;6128175;23;20013;-94
2023/06/09 07:44:39;;;;;;;7.50;3.30;;;;;;;;;;6100438;23;20142;-86
2023/06/09 07:47:06;;;;;;;8.85;4.15;;;;;;;;;;6125818;23;20387;-88
2023/06/09 07:49:32;;;;;;;8.35;3.80;;;;;;;;;;6100558;23;20018;-89
2023/06/09 07:51:58;;;;;;;7.72;3.50;;;;;;;;;;6128274;23;20073;-87
2023/06/09 07:54:24;;;;;;;9.93;4.00;;;;;;;;;;6131095;23;20014;-88
2023/06/09 07:56:50;;;;;;;7.82;3.65;;;;;;;;;;6129399;23;20025;-87
2023/06/09 07:59:20;;;;;;;8.00;4.07;;;;;;;;;;6137035;23;20033;-88
2023/06/09 08:01:46;;;;;;;8.27;3.55;;;;;;;;;;6134526;23;20018;-84
2023/06/09 08:04:13;;;;;;;7.57;3.55;;;;;;;;;;6124623;23;20072;-87
2023/06/09 08:06:39;;;;;;;6.75;3.35;;;;;;;;;;6098841;23;20408;-86
2023/06/09 08:09:05;;;;;;;7.32;3.60;;;;;;;;;;6124293;23;20018;-89
2023/06/09 08:11:31;;;;;;;6.70;2.75;;;;;;;;;;6099260;23;20025;-86
2023/06/09 08:13:58;;;;;;;5.20;2.95;;;;;;;;;;6125975;23;20018;-91
2023/06/09 08:16:24;;;;;;;7.28;3.97;;;;;;;;;;6120939;23;20022;-89
2023/06/09 08:18:50;;;;;;;4.80;3.42;;;;;;;;;;6122646;23;20014;-89
2023/06/09 08:21:18;;;;;;;7.05;3.13;;;;;;;;;;6121105;23;20014;-86
2023/06/09 08:23:44;;;;;;;5.80;3.35;;;;;;;;;;6120655;23;20088;-83
2023/06/09 08:26:10;;;;;;;5.97;3.40;;;;;;;;;;6123217;23;20049;-88
2023/06/09 08:28:38;;;;;;;9.38;3.55;;;;;;;;;;6119733;23;20468;-85
2023/06/09 08:31:04;;;;;;;6.78;3.38;;;;;;;;;;6122939;23;20022;-87
2023/06/09 08:33:33;;;;;;;7.13;3.22;;;;;;;;;;6120445;23;20037;-85
2023/06/09 08:36:02;;;;;;;8.40;3.25;;;;;;;;;;6121501;23;20025;-84
2023/06/09 08:38:28;;;;;;;7.38;3.20;;;;;;;;;;6120255;23;20013;-86
2023/06/09 08:40:57;;;;;;;6.55;3.10;;;;;;;;;;6121663;23;20014;-88
2023/06/09 08:43:23;;;;;;;9.48;4.20;;;;;;;;;;6119457;23;20344;-85
2023/06/09 08:45:49;;;;;;;6.88;3.53;;;;;;;;;;6096426;23;20033;-85
2023/06/09 08:48:17;;;;;;;9.00;3.15;;;;;;;;;;6120753;23;20022;-87
2023/06/09 08:50:44;;;;;;;5.78;3.58;;;;;;;;;;6121410;23;20313;-85
2023/06/09 08:53:10;;;;;;;5.13;3.15;;;;;;;;;;6120913;23;20037;-88
2023/06/09 08:55:36;;;;;;;6.97;3.70;;;;;;;;;;6121423;23;20486;-88
2023/06/09 08:58:03;;;;;;;7.25;3.47;;;;;;;;;;6095379;23;20060;-86
2023/06/09 09:00:29;;;;;;;3.58;2.95;;;;;;;;;;6123383;23;20028;-86
2023/06/09 09:02:56;;;;;;;4.45;2.90;;;;;;;;;;6120520;23;20049;-84
2023/06/09 09:05:22;;;;;;;5.63;3.47;;;;;;;;;;6121509;23;20088;-86
2023/06/09 09:07:49;;;;;;;4.72;2.88;;;;;;;;;;6121994;23;20022;-89
2023/06/09 09:10:15;;;;;;;4.68;3.03;;;;;;;;;;6123856;23;20022;-92
2023/06/09 09:12:52;;;;;;;6.63;3.30;;;;;;;;;;6121204;23;20025;-92
2023/06/09 09:15:18;;;;;;;5.28;3.22;;;;;;;;;;6122870;23;20018;-87
2023/06/09 09:17:47;;;;;;;4.88;3.30;;;;;;;;;;6121341;23;20045;-88
2023/06/09 09:20:17;;;;;;;7.05;3.33;;;;;;;;;;6121559;23;20093;-91
2023/06/09 09:22:52;;;;;;;8.60;3.80;;;;;;;;;;6120014;23;20022;-90
2023/06/09 09:25:22;;;;;;;7.72;3.50;;;;;;;;;;6120779;23;20022;-89
2023/06/09 09:27:58;;;;;;;7.47;3.85;;;;;;;;;;6122199;23;20028;-87
2023/06/09 09:30:40;;;;;;;9.07;3.10;;;;;;;;;;6120893;23;20064;-84
2023/06/09 09:33:09;;;;;;;8.52;3.80;;;;;;;;;;6123785;23;20335;-83
2023/06/09 09:35:37;;;;;;;6.80;3.65;;;;;;;;;;6119753;23;20030;-88
2023/06/09 09:38:03;;;;;;;4.82;3.35;;;;;;;;;;6096603;23;20018;-88
2023/06/09 09:40:29;;;;;;;4.85;3.42;;;;;;;;;;6118176;23;20018;-89
2023/06/09 09:42:59;;;;;;;6.25;3.38;;;;;;;;;;6121962;23;20014;-86
2023/06/09 09:45:26;;;;;;;5.50;4.00;;;;;;;;;;6120422;23;20025;-86
2023/06/09 09:47:52;;;;;;;5.97;3.55;;;;;;;;;;6122101;23;20024;-83
2023/06/09 09:50:23;;;;;;;6.25;3.42;;;;;;;;;;6121455;23;20503;-90
2023/06/09 09:52:51;;;;;;;5.30;3.65;;;;;;;;;;6122734;23;20100;-86
2023/06/09 09:55:18;;;;;;;6.38;3.92;;;;;;;;;;6129375;23;20025;-84
2023/06/09 09:57:45;;;;;;;6.53;3.63;;;;;;;;;;6132867;23;20481;-83
2023/06/09 10:00:12;;;;;;;5.20;3.50;;;;;;;;;;6133704;23;20061;-83
2023/06/09 10:02:42;;;;;;;6.60;3.22;;;;;;;;;;6122623;23;20032;-86
2023/06/09 10:05:08;;;;;;;4.03;3.53;;;;;;;;;;6120946;23;20573;-85
2023/06/09 10:07:38;;;;;;;4.35;3.75;;;;;;;;;;6122621;23;20344;-86
2023/06/09 10:10:04;;;;;;;4.78;3.83;;;;;;;;;;6122992;23;20383;-86
2023/06/09 10:12:30;;;;;;;5.60;3.30;;;;;;;;;;6121636;23;20014;-83
2023/06/09 10:14:57;;;;;;;5.70;3.22;;;;;;;;;;6120516;23;20014;-85
2023/06/09 10:17:25;;;;;;;4.80;3.50;;;;;;;;;;6121276;23;20126;-86
2023/06/09 10:19:52;;;;;;;3.63;3.25;;;;;;;;;;6120731;23;20089;-87
2023/06/09 10:22:22;;;;;;;4.28;3.50;;;;;;;;;;6123070;23;20014;-83
2023/06/09 10:24:48;;;;;;;5.82;3.53;;;;;;;;;;6121666;23;20046;-82
2023/06/09 10:27:15;;;;;;;5.43;3.75;;;;;;;;;;6124365;23;20018;-83
2023/06/09 10:29:41;;;;;;;4.22;3.20;;;;;;;;;;6121888;23;20026;-83
2023/06/09 10:32:11;;;;;;;3.78;3.47;;;;;;;;;;6124176;23;20014;-86
2023/06/09 10:34:37;;;;;;;;;;;;;;;;;;6122505;23;20093;-89
2023/06/09 10:37:04;;;;;;;4.38;3.38;;;;;;;;;;6124568;23;19952;-82
2023/06/09 10:39:52;;;;;;;5.32;3.53;;;;;;;;;;6119888;23;20018;-86
2023/06/09 10:42:18;;;;;;;4.90;3.75;;;;;;;;;;6121646;23;20021;-85
2023/06/09 10:44:59;;;;;;;6.97;3.97;;;;;;;;;;6120362;23;20018;-85
2023/06/09 10:47:42;;;;;;;7.70;4.10;;;;;;;;;;6120733;23;20021;-84
2023/06/09 10:50:20;;;;;;;5.50;3.55;;;;;;;;;;6121592;23;20089;-88
2023/06/09 10:52:47;;;;;;;5.63;3.35;;;;;;;;;;6122377;23;20028;-85
2023/06/09 10:55:15;;;;;;;4.72;3.55;;;;;;;;;;6124485;23;20014;-86
2023/06/09 10:57:42;;;;;;;3.70;3.40;;;;;;;;;;6122639;23;20090;-84
2023/06/09 11:00:12;;;;;;;4.13;3.50;;;;;;;;;;6122339;23;20068;-86
2023/06/09 11:02:40;;;;;;;5.30;4.20;;;;;;;;;;6120625;23;20637;-84
2023/06/09 11:05:06;;;;;;;3.88;3.42;;;;;;;;;;6123583;23;20014;-83
2023/06/09 11:07:39;;;;;;;5.00;3.92;;;;;;;;;;6117952;23;20367;-85
2023/06/09 11:10:07;;;;;;;4.47;3.70;;;;;;;;;;6126733;23;20010;-89
2023/06/09 11:12:36;;;;;;;5.00;3.83;;;;;;;;;;6100807;23;20020;-94
2023/06/09 11:15:03;;;;;;;4.43;3.35;;;;;;;;;;6100671;23;20013;-88
2023/06/09 11:17:41;;;;;;;5.03;3.67;;;;;;;;;;6126449;23;20104;-89
2023/06/09 11:20:08;;;;;;;4.72;4.00;;;;;;;;;;6126512;23;20396;-92
2023/06/09 11:22:35;;;;;;;5.10;3.75;;;;;;;;;;6101546;23;20022;-89
2023/06/09 11:25:02;;;;;;;5.20;3.47;;;;;;;;;;6131115;23;20030;-93
2023/06/09 11:27:28;;;;;;;7.70;4.13;;;;;;;;;;6128928;23;20335;-87
2023/06/09 11:30:20;;;;;;;4.50;3.33;;;;;;;;;;6125592;23;20092;-92
2023/06/09 11:32:46;;;;;;;4.93;3.53;;;;;;;;;;6126785;23;20018;-85
2023/06/09 11:35:31;;;;;;;4.80;3.72;;;;;;;;;;6127423;23;20045;-89
2023/06/09 11:38:00;;;;;;;7.68;4.55;;;;;;;;;;6125908;23;20025;-90
2023/06/09 11:40:28;;;;;;;3.90;3.22;;;;;;;;;;6126757;23;20017;-94
2023/06/09 11:42:54;;;;;;;4.93;3.80;;;;;;;;;;6125071;23;20021;-93
2023/06/09 11:45:24;;;;;;;4.72;4.13;;;;;;;;;;6100958;23;20021;-89
2023/06/09 11:47:56;;;;;;;4.78;3.65;;;;;;;;;;6127426;23;20018;-90
2023/06/09 11:50:22;;;;;;;5.53;4.05;;;;;;;;;;6125536;23;20021;-93
2023/06/09 11:53:01;;;;;;;4.50;3.38;;;;;;;;;;6101709;23;20049;-91
2023/06/09 11:55:31;;;;;;;3.92;3.63;;;;;;;;;;6127561;23;20014;-94
2023/06/09 11:57:57;;;;;;;4.38;3.80;;;;;;;;;;6101098;23;20036;-91
2023/06/09 12:00:27;;;;;;;3.88;3.53;;;;;;;;;;6099976;23;20017;-94
2023/06/09 12:02:53;;;;;;;4.38;3.95;;;;;;;;;;6125395;23;20022;-91
2023/06/09 12:05:21;;;;;;;6.28;3.75;;;;;;;;;;6125172;23;20033;-96
2023/06/09 12:07:47;;;;;;;6.75;3.65;;;;;;;;;;6127024;23;20018;-89
2023/06/09 12:10:17;;;;;;;5.22;3.80;;;;;;;;;;6123701;23;20046;-85
2023/06/09 12:12:52;;;;;;;5.00;3.85;;;;;;;;;;6099933;23;20106;-86
2023/06/09 12:15:19;;;;;;;4.10;3.70;;;;;;;;;;6127337;23;20094;-91
2023/06/09 12:17:53;;;;;;;5.25;4.20;;;;;;;;;;6100360;23;20018;-88
2023/06/09 12:20:22;;;;;;;4.68;3.47;;;;;;;;;;6101739;23;20074;-91
2023/06/09 12:22:51;;;;;;;3.97;3.67;;;;;;;;;;6127749;23;20015;-91
2023/06/09 12:25:19;;;;;;;4.85;3.80;;;;;;;;;;6125320;23;20049;-95
2023/06/09 12:27:45;;;;;;;4.32;3.95;;;;;;;;;;6126894;23;20021;-89
2023/06/09 12:30:11;;;;;;;5.18;4.20;;;;;;;;;;6122455;23;20018;-85
2023/06/09 12:32:38;;;;;;;7.53;3.85;;;;;;;;;;6128077;23;20046;-90
2023/06/09 12:35:04;;;;;;;6.25;4.45;;;;;;;;;;6125953;23;20448;-91
2023/06/09 12:37:36;;;;;;;4.32;3.70;;;;;;;;;;6123446;23;20150;-90
2023/06/09 12:40:04;;;;;;;5.93;3.90;;;;;;;;;;6127380;23;20010;-90
2023/06/09 12:42:30;;;;;;;5.53;3.95;;;;;;;;;;6102818;23;20016;-90
2023/06/09 12:44:57;;;;;;;5.30;3.97;;;;;;;;;;6101107;23;20018;-91
2023/06/09 12:47:24;;;;;;;5.25;3.53;;;;;;;;;;6127169;23;20014;-92
2023/06/09 12:49:50;;;;;;;3.65;3.35;;;;;;;;;;6128456;23;20014;-87
2023/06/09 12:52:17;;;;;;;4.65;3.70;;;;;;;;;;6124545;23;20018;-93
2023/06/09 12:54:43;;;;;;;4.10;3.65;;;;;;;;;;6102771;23;20025;-95
2023/06/09 12:57:10;;;;;;;4.60;4.20;;;;;;;;;;6130269;23;20010;-90
2023/06/09 12:59:36;;;;;;;4.53;4.00;;;;;;;;;;6126239;23;20018;-89
2023/06/09 13:02:02;;;;;;;4.10;3.70;;;;;;;;;;6125661;23;20010;-89
2023/06/09 13:04:28;;;;;;;4.20;3.75;;;;;;;;;;6123086;23;20018;-87
2023/06/09 13:06:55;;;;;;;5.28;4.07;;;;;;;;;;6123341;23;20028;-88
2023/06/09 13:09:21;;;;;;;4.53;4.10;;;;;;;;;;6125793;23;20022;-89
2023/06/09 13:11:47;;;;;;;4.22;3.83;;;;;;;;;;6124697;23;20018;-89
2023/06/09 13:14:13;;;;;;;4.55;3.78;;;;;;;;;;6124972;23;20101;-90
2023/06/09 13:16:39;;;;;;;4.45;3.92;;;;;;;;;;6137818;23;20033;-94
2023/06/09 13:19:05;;;;;;;4.75;4.03;;;;;;;;;;6127800;23;20022;-86
2023/06/09 13:21:31;;;;;;;5.45;4.22;;;;;;;;;;6127236;23;20069;-87
2023/06/09 13:23:58;;;;;;;5.32;4.05;;;;;;;;;;6130090;23;20010;-87
2023/06/09 13:26:24;;;;;;;7.88;4.28;;;;;;;;;;6133308;23;20041;-90
2023/06/09 13:28:50;;;;;;;6.55;4.40;;;;;;;;;;6132038;23;20441;-86
2023/06/09 13:31:16;;;;;;;6.53;4.35;;;;;;;;;;6133910;23;20017;-88
2023/06/09 13:33:43;;;;;;;5.78;3.85;;;;;;;;;;6130930;23;20096;-89
2023/06/09 13:36:09;;;;;;;5.35;4.65;;;;;;;;;;6132393;23;20022;-91
2023/06/09 13:38:37;;;;;;;4.97;4.47;;;;;;;;;;6141367;23;20018;-88
2023/06/09 13:41:03;;;;;;;4.25;3.72;;;;;;;;;;6107499;23;20014;-90
2023/06/09 13:43:29;;;;;;;5.78;3.97;;;;;;;;;;6130030;23;20018;-88
2023/06/09 13:45:55;;;;;;;4.07;3.78;;;;;;;;;;6139086;23;20022;-85
2023/06/09 13:48:21;;;;;;;5.57;4.05;;;;;;;;;;6143145;23;20025;-83
2023/06/09 13:50:47;;;;;;;8.07;4.18;;;;;;;;;;6124898;23;20037;-91
2023/06/09 13:53:13;;;;;;;4.85;3.88;;;;;;;;;;6138153;23;20018;-86
2023/06/09 13:55:39;;;;;;;4.70;4.25;;;;;;;;;;6124869;23;20340;-86
2023/06/09 13:58:05;;;;;;;6.20;3.85;;;;;;;;;;6124715;23;20021;-85
2023/06/09 14:00:32;;;;;;;9.00;4.38;;;;;;;;;;6123088;23;20018;-88
2023/06/09 14:02:58;;;;;;;4.28;3.88;;;;;;;;;;6123077;23;20018;-84
2023/06/09 14:05:25;;;;;;;4.28;3.88;;;;;;;;;;6097069;23;20014;-86
2023/06/09 14:07:51;;;;;;;4.93;4.43;;;;;;;;;;6126203;23;20479;-86
2023/06/09 14:10:17;;;;;;;4.47;3.45;;;;;;;;;;6123039;23;20101;-87
2023/06/09 14:12:47;;;;;;;6.85;4.45;;;;;;;;;;6125925;23;20022;-87
2023/06/09 14:15:15;;;;;;;4.75;4.22;;;;;;;;;;6123200;23;20022;-86
2023/06/09 14:17:49;;;;;;;4.07;3.63;;;;;;;;;;6121458;23;20081;-87
2023/06/09 14:20:15;;;;;;;4.88;4.20;;;;;;;;;;6122705;23;20029;-88
2023/06/09 14:22:41;;;;;;;4.35;3.78;;;;;;;;;;6123851;23;20026;-88
2023/06/09 14:25:07;;;;;;;4.40;3.80;;;;;;;;;;6122191;23;20088;-85
2023/06/09 14:27:33;;;;;;;4.28;3.88;;;;;;;;;;6124436;23;20017;-89
2023/06/09 14:29:59;;;;;;;4.30;3.90;;;;;;;;;;6122221;23;20021;-88
2023/06/09 14:32:26;;;;;;;4.93;4.22;;;;;;;;;;6121575;23;20018;-85
2023/06/09 14:34:52;;;;;;;6.53;4.03;;;;;;;;;;6122470;23;20081;-86
2023/06/09 14:37:18;;;;;;;9.00;4.30;;;;;;;;;;6121128;23;20135;-84
2023/06/09 14:39:44;;;;;;;10.50;3.88;;;;;;;;;;6121297;23;20017;-84
2023/06/09 14:42:10;;;;;;;5.20;3.85;;;;;;;;;;6125203;23;20014;-90
2023/06/09 14:44:37;;;;;;;3.95;3.40;;;;;;;;;;6123144;23;20562;-86